createdAt,value
2023-05-17T00:00:01.472Z,100164.66
2023-05-17T00:02:30.182Z,100154.28
2023-05-17T00:04:58.009Z,100152.34
2023-05-17T00:07:25.567Z,100149.97
2023-05-17T00:09:53.076Z,100148.06
2023-05-17T00:12:20.946Z,100144.19
2023-05-17T00:14:48.593Z,100144.19
2023-05-17T00:17:16.816Z,100150.81
2023-05-17T00:19:44.997Z,100146.47
2023-05-17T00:22:12.678Z,100150.16
2023-05-17T00:24:41.111Z,100155.28
2023-05-17T00:27:09.167Z,100151.38
2023-05-17T00:29:36.741Z,100147.56
2023-05-17T00:32:04.668Z,100144.69
2023-05-17T00:34:32.796Z,100137.91
2023-05-17T00:37:00.482Z,100142.75
2023-05-17T00:39:28.353Z,100137.44
2023-05-17T00:41:56.389Z,100128.28
2023-05-17T00:44:23.958Z,100127.63
2023-05-17T00:46:52.377Z,100130.94
2023-05-17T00:49:20.116Z,100129.25
2023-05-17T00:51:48.571Z,100134.56
2023-05-17T00:54:16.683Z,100129.47
2023-05-17T00:56:44.910Z,100126.38
2023-05-17T00:59:14.064Z,100123.47
2023-05-17T01:01:43.094Z,100127.03
2023-05-17T01:04:11.711Z,100129.09
2023-05-17T01:06:41.139Z,100136.56
2023-05-17T01:09:09.370Z,100136.41
2023-05-17T01:11:55.319Z,100131.13
2023-05-17T01:14:56.990Z,100129.50
2023-05-17T01:17:35.794Z,100134.88
2023-05-17T01:20:26.993Z,100138.41
2023-05-17T01:22:57.767Z,100132.47
2023-05-17T01:26:04.040Z,100137.63
2023-05-17T01:28:32.086Z,100140.03
2023-05-17T01:31:04.679Z,100140.72
2023-05-17T01:33:33.050Z,100140.72
2023-05-17T01:36:01.999Z,100151.41
2023-05-17T01:38:29.733Z,100148.63
2023-05-17T01:41:05.003Z,100157.09
2023-05-17T01:43:41.705Z,100153.75
2023-05-17T01:46:41.644Z,100155.63
2023-05-17T01:49:24.071Z,100153.13
2023-05-17T01:52:09.086Z,100165.88
2023-05-17T01:55:05.751Z,100164.22
2023-05-17T01:57:37.117Z,100168.97
2023-05-17T02:00:11.849Z,100166.97
2023-05-17T02:02:45.068Z,100179.13
2023-05-17T02:05:13.428Z,100177.34
2023-05-17T02:07:41.405Z,100170.91
2023-05-17T02:10:09.611Z,100175.19
2023-05-17T02:12:42.429Z,100179.38
2023-05-17T02:15:12.087Z,100180.06
2023-05-17T02:17:40.794Z,100188.88
2023-05-17T02:20:10.683Z,100187.44
2023-05-17T02:22:38.265Z,100187.22
2023-05-17T02:25:08.035Z,100177.84
2023-05-17T02:27:36.756Z,100178.81
2023-05-17T02:30:04.905Z,100187.72
2023-05-17T02:32:33.299Z,100189.53
2023-05-17T02:35:01.051Z,100185.19
2023-05-17T02:37:29.098Z,100189.75
2023-05-17T02:39:57.149Z,100188.28
2023-05-17T02:42:24.703Z,100189.63
2023-05-17T02:44:56.270Z,100196.63
2023-05-17T02:47:24.336Z,100198.28
2023-05-17T02:49:55.250Z,100198.66
2023-05-17T02:52:22.898Z,100211.50
2023-05-17T02:54:51.710Z,100204.25
2023-05-17T02:57:19.552Z,100212.19
2023-05-17T02:59:47.167Z,100219.38
2023-05-17T03:02:15.937Z,100222.44
2023-05-17T03:04:44.062Z,100220.81
2023-05-17T03:07:11.755Z,100216.88
2023-05-17T03:09:40.070Z,100227.34
2023-05-17T03:12:08.953Z,100229.16
2023-05-17T03:14:36.996Z,100238.50
2023-05-17T03:17:05.206Z,100238.88
2023-05-17T03:19:35.720Z,100239.59
2023-05-17T03:22:04.361Z,100248.41
2023-05-17T03:24:34.397Z,100252.13
2023-05-17T03:27:02.318Z,100259.75
2023-05-17T03:29:29.919Z,100265.16
2023-05-17T03:31:57.619Z,100264.22
2023-05-17T03:34:26.131Z,100266.84
2023-05-17T03:36:54.221Z,100267.56
2023-05-17T03:39:22.445Z,100275.47
2023-05-17T03:41:51.416Z,100278.50
2023-05-17T03:44:19.176Z,100285.59
2023-05-17T03:46:47.808Z,100284.38
2023-05-17T03:49:16.255Z,100290.19
2023-05-17T03:51:45.120Z,100300.63
2023-05-17T03:54:12.734Z,100306.47
2023-05-17T03:56:40.354Z,100312.69
2023-05-17T03:59:10.556Z,100308.78
2023-05-17T04:01:38.853Z,100320.19
2023-05-17T04:04:07.049Z,100322.31
2023-05-17T04:06:35.392Z,100326.88
2023-05-17T04:09:04.734Z,100327.03
2023-05-17T04:11:33.242Z,100329.97
2023-05-17T04:14:00.954Z,100338.69
2023-05-17T04:16:28.907Z,100343.03
2023-05-17T04:18:56.660Z,100339.72
2023-05-17T04:21:24.285Z,100348.03
2023-05-17T04:23:52.862Z,100348.28
2023-05-17T04:26:20.718Z,100355.56
2023-05-17T04:28:48.974Z,100351.25
2023-05-17T04:31:18.044Z,100347.06
2023-05-17T04:33:46.916Z,100353.91
2023-05-17T04:36:14.970Z,100348.28
2023-05-17T04:38:43.236Z,100353.75
2023-05-17T04:41:13.873Z,100349.28
2023-05-17T04:43:42.851Z,100352.75
2023-05-17T04:46:18.788Z,100355.56
2023-05-17T04:48:47.259Z,100357.75
2023-05-17T04:51:15.912Z,100365.28
2023-05-17T04:53:44.502Z,100360.47
2023-05-17T04:56:16.610Z,100361.88
2023-05-17T04:58:44.278Z,100363.25
2023-05-17T05:01:13.060Z,100370.72
2023-05-17T05:03:40.981Z,100369.91
2023-05-17T05:06:11.565Z,100372.69
2023-05-17T05:08:39.395Z,100389.41
2023-05-17T05:11:11.556Z,100381.28
2023-05-17T05:13:39.159Z,100384.63
2023-05-17T05:16:08.275Z,100383.25
2023-05-17T05:18:37.055Z,100397.59
2023-05-17T05:21:05.486Z,100396.47
2023-05-17T05:23:33.458Z,100396.53
2023-05-17T05:26:01.496Z,100410.25
2023-05-17T05:28:30.021Z,100410.72
2023-05-17T05:30:59.711Z,100409.38
2023-05-17T05:33:32.484Z,100408.09
2023-05-17T05:36:00.498Z,100409.63
2023-05-17T05:38:28.139Z,100414.25
2023-05-17T05:40:56.400Z,100408.59
2023-05-17T05:43:24.429Z,100422.03
2023-05-17T05:45:52.082Z,100424.31
2023-05-17T05:48:19.807Z,100428.75
2023-05-17T05:50:47.905Z,100433.50
2023-05-17T05:53:19.381Z,100426.44
2023-05-17T05:55:53.264Z,100429.94
2023-05-17T05:58:21.447Z,100429.63
2023-05-17T06:00:49.894Z,100430.16
2023-05-17T06:03:17.680Z,100430.28
2023-05-17T06:05:45.427Z,100431.06
2023-05-17T06:08:13.902Z,100425.25
2023-05-17T06:10:41.983Z,100436.44
2023-05-17T06:13:09.559Z,100439.84
2023-05-17T06:15:37.556Z,100435.66
2023-05-17T06:18:05.475Z,100443.59
2023-05-17T06:20:33.088Z,100442.47
2023-05-17T06:23:01.959Z,100445.53
2023-05-17T06:25:29.602Z,100443.97
2023-05-17T06:27:57.354Z,100442.50
2023-05-17T06:30:25.142Z,100442.34
2023-05-17T06:32:53.205Z,100447.28
2023-05-17T06:35:21.369Z,100445.81
2023-05-17T06:37:48.935Z,100448.28
2023-05-17T06:40:17.297Z,100449.94
2023-05-17T06:42:45.118Z,100457.44
2023-05-17T06:45:13.989Z,100462.66
2023-05-17T06:47:44.848Z,100461.59
2023-05-17T06:50:12.817Z,100459.81
2023-05-17T06:52:40.912Z,100464.41
2023-05-17T06:55:09.325Z,100470.63
2023-05-17T06:57:37.638Z,100474.66
2023-05-17T07:00:11.236Z,100473.16
2023-05-17T07:02:39.398Z,100472.56
2023-05-17T07:05:07.482Z,100478.22
2023-05-17T07:07:35.247Z,100479.16
2023-05-17T07:10:03.890Z,100487.00
2023-05-17T07:12:31.563Z,100490.03
2023-05-17T07:14:59.588Z,100487.91
2023-05-17T07:17:27.622Z,100479.50
2023-05-17T07:19:56.096Z,100491.78
2023-05-17T07:22:24.169Z,100479.88
2023-05-17T07:24:52.264Z,100481.47
2023-05-17T07:27:19.899Z,100490.78
2023-05-17T07:29:47.559Z,100493.88
2023-05-17T07:32:16.151Z,100489.44
2023-05-17T07:34:44.008Z,100483.34
2023-05-17T07:37:12.062Z,100479.97
2023-05-17T07:39:40.216Z,100467.34
2023-05-17T07:42:08.566Z,100473.09
2023-05-17T07:44:36.088Z,100484.00
2023-05-17T07:47:04.696Z,100474.97
2023-05-17T07:49:32.802Z,100480.66
2023-05-17T07:52:01.826Z,100478.72
2023-05-17T07:54:31.140Z,100481.06
2023-05-17T07:56:59.804Z,100486.28
2023-05-17T07:59:27.726Z,100490.44
2023-05-17T08:01:55.359Z,100493.16
2023-05-17T08:04:24.383Z,100499.97
2023-05-17T08:06:52.683Z,100499.19
2023-05-17T08:09:20.222Z,100513.25
2023-05-17T08:11:48.138Z,100511.66
2023-05-17T08:14:16.788Z,100513.06
2023-05-17T08:16:45.867Z,100519.00
2023-05-17T08:19:14.985Z,100519.84
2023-05-17T08:21:43.773Z,100519.38
2023-05-17T08:24:11.881Z,100524.72
2023-05-17T08:26:40.905Z,100537.16
2023-05-17T08:29:08.444Z,100537.31
2023-05-17T08:31:36.294Z,100536.50
2023-05-17T08:34:04.160Z,100546.69
2023-05-17T08:36:31.698Z,100558.03
2023-05-17T08:38:59.265Z,100560.50
2023-05-17T08:41:27.626Z,100566.00
2023-05-17T08:43:56.940Z,100564.19
2023-05-17T08:46:27.014Z,100563.34
2023-05-17T08:49:00.154Z,100565.16
2023-05-17T08:51:28.992Z,100558.34
2023-05-17T08:53:56.807Z,100565.88
2023-05-17T08:56:26.641Z,100564.63
2023-05-17T08:58:59.300Z,100570.00
2023-05-17T09:01:29.907Z,100576.66
2023-05-17T09:04:00.450Z,100582.97
2023-05-17T09:06:28.346Z,100576.78
2023-05-17T09:08:58.511Z,100583.78
2023-05-17T09:11:31.351Z,100579.84
2023-05-17T09:14:01.093Z,100581.78
2023-05-17T09:16:30.485Z,100591.75
2023-05-17T09:18:59.416Z,100591.16
2023-05-17T09:21:29.071Z,100591.91
2023-05-17T09:24:06.112Z,100590.97
2023-05-17T09:26:40.436Z,100581.97
2023-05-17T09:29:13.213Z,100585.38
2023-05-17T09:31:42.751Z,100575.03
2023-05-17T09:34:10.950Z,100572.97
2023-05-17T09:36:42.845Z,100570.56
2023-05-17T09:39:13.181Z,100576.91
2023-05-17T09:41:48.226Z,100577.66
2023-05-17T09:44:16.604Z,100579.69
2023-05-17T09:46:48.924Z,100587.69
2023-05-17T09:49:17.797Z,100597.75
2023-05-17T09:51:48.175Z,100597.94
2023-05-17T09:54:17.684Z,100601.47
2023-05-17T09:56:45.695Z,100609.13
2023-05-17T09:59:15.044Z,100610.25
2023-05-17T10:01:45.494Z,100611.72
2023-05-17T10:04:13.975Z,100614.50
2023-05-17T10:06:49.653Z,100613.75
2023-05-17T10:09:21.736Z,100615.88
2023-05-17T10:11:53.099Z,100618.09
2023-05-17T10:14:29.048Z,100612.41
2023-05-17T10:16:58.048Z,100611.53
2023-05-17T10:19:26.803Z,100606.91
2023-05-17T10:21:58.661Z,100601.63
2023-05-17T10:24:32.991Z,100607.34
2023-05-17T10:27:01.085Z,100608.16
2023-05-17T10:29:34.982Z,100609.34
2023-05-17T10:32:09.478Z,100609.66
2023-05-17T10:34:39.252Z,100621.97
2023-05-17T10:37:07.798Z,100624.38
2023-05-17T10:39:38.667Z,100618.72
2023-05-17T10:44:40.683Z,100615.69
2023-05-17T10:47:08.999Z,100611.16
2023-05-17T10:52:20.154Z,100626.94
2023-05-17T10:54:52.961Z,100628.78
2023-05-17T10:57:39.095Z,100629.63
2023-05-17T11:00:21.439Z,100622.19
2023-05-17T11:02:50.781Z,100625.25
2023-05-17T11:05:27.500Z,100629.34
2023-05-17T11:08:17.613Z,100629.97
2023-05-17T11:11:10.629Z,100638.00
2023-05-17T11:13:54.950Z,100636.47
2023-05-17T11:16:27.435Z,100631.09
2023-05-17T11:18:57.624Z,100641.81
2023-05-17T11:21:29.270Z,100637.75
2023-05-17T11:24:02.274Z,100632.00
2023-05-17T11:26:40.943Z,100632.41
2023-05-17T11:29:10.667Z,100634.16
2023-05-17T11:31:45.248Z,100638.47
2023-05-17T11:34:13.098Z,100632.34
2023-05-17T11:36:55.049Z,100642.19
2023-05-17T11:39:23.879Z,100643.53
2023-05-17T11:41:53.960Z,100649.22
2023-05-17T11:44:29.571Z,100650.63
2023-05-17T11:47:03.230Z,100654.94
2023-05-17T11:49:35.791Z,100648.59
2023-05-17T11:52:06.185Z,100644.84
2023-05-17T11:54:35.230Z,100654.84
2023-05-17T11:57:04.226Z,100652.56
2023-05-17T11:59:39.838Z,100653.13
2023-05-17T12:02:07.712Z,100661.75
2023-05-17T12:04:37.947Z,100662.97
2023-05-17T12:07:10.728Z,100666.75
2023-05-17T12:09:40.363Z,100662.50
2023-05-17T12:12:08.728Z,100673.72
2023-05-17T12:14:37.078Z,100673.44
2023-05-17T12:17:09.750Z,100677.41
2023-05-17T12:19:37.685Z,100683.25
2023-05-17T12:22:07.502Z,100680.50
2023-05-17T12:24:39.799Z,100686.09
2023-05-17T12:27:08.006Z,100681.97
2023-05-17T12:29:35.864Z,100682.63
2023-05-17T12:32:04.460Z,100693.38
2023-05-17T12:34:32.720Z,100684.69
2023-05-17T12:37:01.332Z,100688.56
2023-05-17T12:39:31.748Z,100694.19
2023-05-17T12:42:00.908Z,100697.88
2023-05-17T12:44:28.598Z,100705.09
2023-05-17T12:46:57.881Z,100695.53
2023-05-17T12:49:25.880Z,100707.94
2023-05-17T12:51:53.523Z,100696.44
2023-05-17T12:54:24.063Z,100702.22
2023-05-17T12:56:52.423Z,100696.91
2023-05-17T12:59:28.849Z,100705.97
2023-05-17T13:01:58.368Z,100704.34
2023-05-17T13:04:31.939Z,100711.66
2023-05-17T13:07:02.176Z,100701.59
2023-05-17T13:09:31.315Z,100706.84
2023-05-17T13:12:01.018Z,100713.50
2023-05-17T13:14:36.592Z,100705.13
2023-05-17T13:17:06.077Z,100708.25
2023-05-17T13:19:36.149Z,100699.28
2023-05-17T13:22:08.560Z,100701.63
2023-05-17T13:24:38.232Z,100703.53
2023-05-17T13:27:06.901Z,100702.63
2023-05-17T13:29:40.262Z,100701.88
2023-05-17T13:32:10.053Z,100707.38
2023-05-17T13:34:41.109Z,100701.44
2023-05-17T13:37:12.086Z,100701.91
2023-05-17T13:39:41.916Z,100696.22
2023-05-17T13:42:11.305Z,100700.88
2023-05-17T13:44:40.037Z,100708.56
2023-05-17T13:47:08.710Z,100712.13
2023-05-17T13:49:37.384Z,100714.00
2023-05-17T13:52:08.946Z,100715.22
2023-05-17T13:54:37.217Z,100713.06
2023-05-17T13:57:06.006Z,100710.75
2023-05-17T13:59:33.938Z,100710.03
2023-05-17T14:02:01.569Z,100704.53
2023-05-17T14:04:29.641Z,100716.06
2023-05-17T14:06:57.566Z,100713.03
2023-05-17T14:09:25.458Z,100717.81
2023-05-17T14:11:53.392Z,100711.75
2023-05-17T14:14:21.377Z,100712.09
2023-05-17T14:16:49.008Z,100713.31
2023-05-17T14:19:17.057Z,100715.44
2023-05-17T14:21:45.064Z,100719.66
2023-05-17T14:24:12.977Z,100722.97
2023-05-17T14:26:42.205Z,100721.44
2023-05-17T14:29:09.768Z,100724.22
2023-05-17T14:31:37.749Z,100723.72
2023-05-17T14:34:05.277Z,100726.69
2023-05-17T14:36:35.680Z,100724.19
2023-05-17T14:39:03.894Z,100732.19
2023-05-17T14:41:31.826Z,100735.44
2023-05-17T14:43:59.470Z,100730.22
2023-05-17T14:46:27.089Z,100736.81
2023-05-17T14:48:56.735Z,100743.03
2023-05-17T14:51:25.166Z,100741.81
2023-05-17T14:53:54.293Z,100746.28
2023-05-17T14:56:22.679Z,100743.91
2023-05-17T14:58:51.203Z,100748.38
2023-05-17T15:01:18.777Z,100741.94
2023-05-17T15:03:46.901Z,100743.81
2023-05-17T15:06:14.752Z,100745.72
2023-05-17T15:08:42.425Z,100745.19
2023-05-17T15:11:11.119Z,100746.66
2023-05-17T15:13:38.769Z,100741.44
2023-05-17T15:16:08.226Z,100739.56
2023-05-17T15:18:37.935Z,100743.81
2023-05-17T15:21:06.735Z,100748.63
2023-05-17T15:23:34.343Z,100750.25
2023-05-17T15:26:01.908Z,100754.63
2023-05-17T15:28:29.480Z,100758.50
2023-05-17T15:31:10.693Z,100767.84
2023-05-17T15:33:43.352Z,100768.41
2023-05-17T15:36:13.842Z,100766.09
2023-05-17T15:38:42.254Z,100755.59
2023-05-17T15:41:14.842Z,100759.41
2023-05-17T15:43:44.323Z,100760.03
2023-05-17T15:46:12.430Z,100767.78
2023-05-17T15:48:40.050Z,100757.16
2023-05-17T15:51:07.935Z,100768.66
2023-05-17T15:53:35.507Z,100781.03
2023-05-17T15:56:03.897Z,100784.13
2023-05-17T15:58:34.360Z,100777.31
2023-05-17T16:01:06.605Z,100772.66
2023-05-17T16:03:34.839Z,100773.94
2023-05-17T16:06:04.505Z,100786.34
2023-05-17T16:08:32.741Z,100789.28
2023-05-17T16:11:02.135Z,100783.03
2023-05-17T16:13:30.950Z,100773.28
2023-05-17T16:16:00.178Z,100775.28
2023-05-17T16:18:28.397Z,100781.63
2023-05-17T16:21:02.688Z,100783.22
2023-05-17T16:23:30.691Z,100785.34
2023-05-17T16:25:59.408Z,100782.16
2023-05-17T16:28:34.656Z,100773.94
2023-05-17T16:31:04.092Z,100785.16
2023-05-17T16:33:32.357Z,100782.25
2023-05-17T16:36:00.114Z,100784.00
2023-05-17T16:38:28.096Z,100791.56
2023-05-17T16:40:56.486Z,100788.19
2023-05-17T16:43:24.144Z,100792.25
2023-05-17T16:45:53.147Z,100797.25
2023-05-17T16:48:21.334Z,100794.66
2023-05-17T16:50:49.801Z,100791.91
2023-05-17T16:53:18.002Z,100789.81
2023-05-17T16:55:45.813Z,100791.31
2023-05-17T16:58:14.148Z,100791.78
2023-05-17T17:00:42.229Z,100793.41
2023-05-17T17:03:10.240Z,100799.16
2023-05-17T17:05:38.699Z,100784.91
2023-05-17T17:08:06.858Z,100795.13
2023-05-17T17:10:36.000Z,100805.34
2023-05-17T17:13:05.153Z,100796.81
2023-05-17T17:15:33.132Z,100798.63
2023-05-17T17:18:01.169Z,100814.38
2023-05-17T17:20:29.417Z,100815.56
2023-05-17T17:22:57.995Z,100810.59
2023-05-17T17:25:26.236Z,100815.00
2023-05-17T17:27:54.112Z,100812.75
2023-05-17T17:30:22.220Z,100817.53
2023-05-17T17:32:50.783Z,100822.97
2023-05-17T17:35:18.456Z,100822.00
2023-05-17T17:37:46.161Z,100826.94
2023-05-17T17:40:14.339Z,100829.19
2023-05-17T17:42:41.944Z,100831.09
2023-05-17T17:45:10.537Z,100835.78
2023-05-17T17:47:38.171Z,100842.81
2023-05-17T17:50:06.605Z,100846.56
2023-05-17T17:52:34.181Z,100841.19
2023-05-17T17:55:02.419Z,100842.72
2023-05-17T17:57:32.076Z,100848.16
2023-05-17T17:59:59.692Z,100845.09
2023-05-17T18:02:27.815Z,100857.81
2023-05-17T18:04:55.509Z,100860.19
2023-05-17T18:07:23.731Z,100865.44
2023-05-17T18:09:51.810Z,100865.94
2023-05-17T18:12:20.882Z,100871.03
2023-05-17T18:14:49.467Z,100862.88
2023-05-17T18:17:17.065Z,100863.97
2023-05-17T18:19:46.435Z,100860.25
2023-05-17T18:22:18.936Z,100863.38
2023-05-17T18:24:47.217Z,100865.16
2023-05-17T18:27:15.132Z,100865.63
2023-05-17T18:29:43.142Z,100865.03
2023-05-17T18:32:10.839Z,100861.66
2023-05-17T18:34:39.012Z,100860.34
2023-05-17T18:37:06.984Z,100872.91
2023-05-17T18:39:34.952Z,100878.69
2023-05-17T18:42:04.093Z,100880.19
2023-05-17T18:44:32.050Z,100890.44
2023-05-17T18:47:00.101Z,100892.72
2023-05-17T18:49:28.243Z,100899.50
2023-05-17T18:51:56.229Z,100897.44
2023-05-17T18:54:24.129Z,100898.66
2023-05-17T18:56:52.522Z,100903.16
2023-05-17T18:59:20.076Z,100905.19
2023-05-17T19:01:48.117Z,100908.69
2023-05-17T19:04:16.104Z,100908.03
2023-05-17T19:06:44.732Z,100910.03
2023-05-17T19:09:12.558Z,100914.19
2023-05-17T19:11:40.224Z,100924.84
2023-05-17T19:14:08.339Z,100926.81
2023-05-17T19:16:36.115Z,100926.84
2023-05-17T19:19:04.298Z,100939.66
2023-05-17T19:21:32.031Z,100945.53
2023-05-17T19:24:00.895Z,100945.25
2023-05-17T19:26:29.260Z,100947.63
2023-05-17T19:28:57.770Z,100960.81
2023-05-17T19:31:25.334Z,100957.00
2023-05-17T19:33:53.304Z,100959.19
2023-05-17T19:36:21.698Z,100958.47
2023-05-17T19:38:51.828Z,100961.78
2023-05-17T19:41:20.384Z,100970.06
2023-05-17T19:43:47.900Z,100969.94
2023-05-17T19:46:16.050Z,100971.66
2023-05-17T19:48:44.580Z,100973.47
2023-05-17T19:51:12.346Z,100983.69
2023-05-17T19:53:51.373Z,100975.97
2023-05-17T19:56:19.872Z,100978.75
2023-05-17T19:58:48.426Z,100980.47
2023-05-17T20:01:16.101Z,100985.88
2023-05-17T20:03:45.340Z,100994.00
2023-05-17T20:06:14.992Z,100995.41
2023-05-17T20:08:43.258Z,101003.88
2023-05-17T20:11:11.242Z,101003.66
2023-05-17T20:13:40.427Z,101007.69
2023-05-17T20:16:13.017Z,101004.69
2023-05-17T20:18:45.047Z,101006.59
2023-05-17T20:21:19.884Z,101004.63
2023-05-17T20:23:48.049Z,101014.19
2023-05-17T20:26:25.678Z,101020.28
2023-05-17T20:28:53.901Z,101025.81
2023-05-17T20:31:22.256Z,101028.69
2023-05-17T20:33:50.203Z,101026.72
2023-05-17T20:36:18.758Z,101027.72
2023-05-17T20:38:46.849Z,101039.22
2023-05-17T20:41:16.028Z,101038.63
2023-05-17T20:43:47.125Z,101042.41
2023-05-17T20:46:16.078Z,101043.94
2023-05-17T20:48:46.052Z,101055.84
2023-05-17T20:51:14.308Z,101052.44
2023-05-17T20:53:42.472Z,101053.19
2023-05-17T20:56:10.912Z,101051.38
2023-05-17T20:58:39.088Z,101053.06
2023-05-17T21:01:08.123Z,101055.00
2023-05-17T21:03:36.274Z,101053.19
2023-05-17T21:06:05.433Z,101047.88
2023-05-17T21:08:34.432Z,101055.97
2023-05-17T21:11:02.508Z,101056.56
2023-05-17T21:13:30.090Z,101058.22
2023-05-17T21:15:57.677Z,101052.47
2023-05-17T21:18:25.994Z,101057.41
2023-05-17T21:20:55.471Z,101062.56
2023-05-17T21:23:23.392Z,101058.78
2023-05-17T21:25:51.096Z,101064.69
2023-05-17T21:28:18.832Z,101063.44
2023-05-17T21:30:46.521Z,101069.88
2023-05-17T21:33:14.490Z,101074.91
2023-05-17T21:35:42.591Z,101073.34
2023-05-17T21:38:10.906Z,101078.09
2023-05-17T21:40:39.170Z,101076.16
2023-05-17T21:43:07.492Z,101090.41
2023-05-17T21:45:35.893Z,101096.28
2023-05-17T21:48:04.872Z,101087.22
2023-05-17T21:50:32.645Z,101094.88
2023-05-17T21:53:00.426Z,101087.75
2023-05-17T21:55:36.591Z,101090.72
2023-05-17T21:58:09.572Z,101092.34
2023-05-17T22:00:37.933Z,101102.84
2023-05-17T22:03:05.870Z,101099.78
2023-05-17T22:05:33.976Z,101103.00
2023-05-17T22:08:01.680Z,101107.31
2023-05-17T22:10:30.591Z,101109.69
2023-05-17T22:12:58.891Z,101106.06
2023-05-17T22:15:26.436Z,101116.09
2023-05-17T22:17:54.179Z,101117.25
2023-05-17T22:20:23.884Z,101111.09
2023-05-17T22:22:52.019Z,101110.78
2023-05-17T22:25:19.617Z,101116.66
2023-05-17T22:27:47.930Z,101123.06
2023-05-17T22:30:16.177Z,101118.88
2023-05-17T22:32:44.523Z,101123.75
2023-05-17T22:35:12.895Z,101130.03
2023-05-17T22:37:42.831Z,101130.59
2023-05-17T22:40:11.091Z,101120.53
2023-05-17T22:42:38.627Z,101130.09
2023-05-17T22:45:07.153Z,101132.56
2023-05-17T22:47:35.330Z,101131.44
2023-05-17T22:50:03.743Z,101130.47
2023-05-17T22:52:32.686Z,101134.09
2023-05-17T22:55:01.519Z,101136.31
2023-05-17T22:57:29.482Z,101137.16
2023-05-17T22:59:57.589Z,101141.53
2023-05-17T23:02:25.897Z,101143.78
2023-05-17T23:04:53.959Z,101144.69
2023-05-17T23:07:23.313Z,101145.97
2023-05-17T23:09:51.310Z,101138.44
2023-05-17T23:12:18.809Z,101144.16
2023-05-17T23:14:47.611Z,101141.78
2023-05-17T23:17:15.811Z,101136.47
2023-05-17T23:19:43.467Z,101143.59
2023-05-17T23:22:11.129Z,101142.25
2023-05-17T23:24:39.488Z,101141.31
2023-05-17T23:27:12.736Z,101142.16
2023-05-17T23:29:41.819Z,101144.94
2023-05-17T23:32:10.290Z,101145.31
2023-05-17T23:34:37.875Z,101141.41
2023-05-17T23:37:05.417Z,101142.22
2023-05-17T23:39:32.971Z,101134.94
2023-05-17T23:42:00.915Z,101142.41
2023-05-17T23:44:28.984Z,101138.06
2023-05-17T23:46:56.943Z,101142.56
2023-05-17T23:49:25.097Z,101135.16
2023-05-17T23:51:52.715Z,101127.84
2023-05-17T23:54:21.277Z,101132.13
2023-05-17T23:56:49.278Z,101129.25
2023-05-17T23:59:17.085Z,101131.25
